TAP55F EDDM-LPPT
Flight info
| Callsign | TAP55F |
|---|---|
| Flight time | N/A |
| Altitude | 41000 |
| Route | MERSI5S/26L MERSI Y100 UMTEX/N0392F230 Y100 TRA/N0470F390 DCT LUTIX DCT BENOT DCT NEMOS DCT NINTU DCT MEBAK DCT REPSI DCT LERGA DCT MINSO DCT NARAK DCT AGN DCT LATEK DCT PPN DCT MIRPO DCT DGO DCT NEA DCT ARDID DCT INBOM INBOM4B |
| Aircraft | A339/H-VGDW/C |
Departure
| Time | 2026-05-07 15:51 |
|---|---|
| Airport | Munich Airport (EDDM) |
Arrival
| Time | N/A |
|---|---|
| Airport | Lisbon Humberto Delgado Airport (LPPT) |
| Time | Latitude | Longitude | Altitude | Speed | Heading |
|---|---|---|---|---|---|
| 2026-05-07 15:06 | 48.35527 | 11.79734 | 1473 ft | 0 kts | 84° |
| 2026-05-07 15:10 | 48.35526 | 11.79714 | 1461 ft | 0 kts | 84° |
| 2026-05-07 15:42 | 48.35523 | 11.79683 | 1469 ft | 4 kts | 84° |
| 2026-05-07 15:42 | 48.35521 | 11.79650 | 1461 ft | 3 kts | 85° |
| 2026-05-07 15:42 | 48.35519 | 11.79615 | 1461 ft | 4 kts | 116° |
| 2026-05-07 15:42 | 48.35531 | 11.79587 | 1462 ft | 4 kts | 156° |
| 2026-05-07 15:43 | 48.35553 | 11.79576 | 1461 ft | 4 kts | 173° |
| 2026-05-07 15:43 | 48.35573 | 11.79572 | 1464 ft | 0 kts | 174° |
| 2026-05-07 15:45 | 48.35571 | 11.79572 | 1464 ft | 4 kts | 174° |
| 2026-05-07 15:46 | 48.35362 | 11.79606 | 1463 ft | 19 kts | 173° |
| 2026-05-07 15:46 | 48.35228 | 11.79629 | 1471 ft | 20 kts | 173° |
| 2026-05-07 15:46 | 48.35088 | 11.79654 | 1464 ft | 21 kts | 173° |
| 2026-05-07 15:47 | 48.35044 | 11.79661 | 1466 ft | 0 kts | 173° |
| 2026-05-07 15:47 | 48.35041 | 11.79662 | 1464 ft | 3 kts | 173° |
| 2026-05-07 15:47 | 48.34992 | 11.79670 | 1473 ft | 0 kts | 173° |
| 2026-05-07 15:47 | 48.34980 | 11.79672 | 1463 ft | 4 kts | 173° |
| 2026-05-07 15:48 | 48.34935 | 11.79680 | 1463 ft | 9 kts | 173° |
| 2026-05-07 15:48 | 48.34851 | 11.79695 | 1470 ft | 15 kts | 173° |
| 2026-05-07 15:48 | 48.34811 | 11.79791 | 1464 ft | 11 kts | 89° |
| 2026-05-07 15:48 | 48.34818 | 11.79919 | 1473 ft | 14 kts | 82° |
| 2026-05-07 15:49 | 48.34831 | 11.80083 | 1473 ft | 17 kts | 84° |
| 2026-05-07 15:49 | 48.34838 | 11.80275 | 1463 ft | 18 kts | 102° |
| 2026-05-07 15:49 | 48.34741 | 11.80400 | 1469 ft | 20 kts | 161° |
| 2026-05-07 15:49 | 48.34587 | 11.80418 | 1463 ft | 24 kts | 187° |
| 2026-05-07 15:50 | 48.34489 | 11.80311 | 1464 ft | 0 kts | 232° |
| 2026-05-07 15:50 | 48.34485 | 11.80303 | 1464 ft | 4 kts | 231° |
| 2026-05-07 15:50 | 48.34462 | 11.80237 | 1467 ft | 10 kts | 253° |
| 2026-05-07 15:50 | 48.34450 | 11.80091 | 1464 ft | 24 kts | 263° |
| 2026-05-07 15:51 | 48.34406 | 11.79446 | 1461 ft | 101 kts | 263° |
| 2026-05-07 15:51 | 48.34298 | 11.78064 | 1471 ft | 161 kts | 263° |
| 2026-05-07 15:51 | 48.34136 | 11.76227 | 1823 ft | 180 kts | 265° |
| 2026-05-07 15:51 | 48.33943 | 11.74353 | 2555 ft | 186 kts | 263° |
| 2026-05-07 15:52 | 48.33752 | 11.72354 | 3166 ft | 194 kts | 263° |
| 2026-05-07 15:52 | 48.33510 | 11.70281 | 3618 ft | 209 kts | 261° |
| 2026-05-07 15:52 | 48.33241 | 11.68087 | 4094 ft | 223 kts | 261° |
| 2026-05-07 15:52 | 48.33000 | 11.65767 | 4760 ft | 225 kts | 266° |
| 2026-05-07 15:53 | 48.32918 | 11.63388 | 5411 ft | 234 kts | 269° |
| 2026-05-07 15:53 | 48.32878 | 11.60909 | 5724 ft | 254 kts | 269° |
| 2026-05-07 15:53 | 48.32791 | 11.58226 | 6376 ft | 259 kts | 266° |
| 2026-05-07 15:53 | 48.32642 | 11.55515 | 7095 ft | 261 kts | 265° |
| 2026-05-07 15:54 | 48.32457 | 11.52813 | 7813 ft | 263 kts | 264° |
| 2026-05-07 15:54 | 48.32250 | 11.50059 | 8556 ft | 264 kts | 264° |
| 2026-05-07 15:54 | 48.32038 | 11.47287 | 9280 ft | 267 kts | 263° |
| 2026-05-07 15:54 | 48.31828 | 11.44537 | 10014 ft | 269 kts | 263° |
| 2026-05-07 15:55 | 48.31615 | 11.41711 | 10689 ft | 272 kts | 263° |
| 2026-05-07 15:55 | 48.31402 | 11.38872 | 11373 ft | 275 kts | 263° |
| 2026-05-07 15:55 | 48.31189 | 11.36025 | 12083 ft | 278 kts | 263° |
| 2026-05-07 15:55 | 48.30968 | 11.33120 | 12842 ft | 280 kts | 263° |
| 2026-05-07 15:56 | 48.30423 | 11.30287 | 13482 ft | 285 kts | 243° |
| 2026-05-07 15:56 | 48.29192 | 11.28042 | 14103 ft | 291 kts | 221° |
| 2026-05-07 15:56 | 48.27389 | 11.26585 | 14673 ft | 300 kts | 205° |
| 2026-05-07 15:56 | 48.25373 | 11.25416 | 14848 ft | 318 kts | 204° |
| 2026-05-07 15:57 | 48.23267 | 11.24187 | 15013 ft | 335 kts | 204° |
| 2026-05-07 15:57 | 48.21048 | 11.22837 | 15220 ft | 350 kts | 205° |
| 2026-05-07 15:57 | 48.18769 | 11.21406 | 15721 ft | 355 kts | 205° |
| 2026-05-07 15:57 | 48.16486 | 11.19952 | 16278 ft | 358 kts | 206° |
| 2026-05-07 15:58 | 48.14210 | 11.18468 | 16776 ft | 361 kts | 207° |
| 2026-05-07 15:58 | 48.11947 | 11.16754 | 17310 ft | 363 kts | 211° |
| 2026-05-07 15:58 | 48.09765 | 11.14827 | 17830 ft | 367 kts | 214° |
| 2026-05-07 15:58 | 48.07619 | 11.12830 | 18338 ft | 370 kts | 214° |
| 2026-05-07 15:59 | 48.05407 | 11.10789 | 18824 ft | 373 kts | 214° |
| 2026-05-07 15:59 | 48.03933 | 11.09444 | 19155 ft | 375 kts | 213° |
| 2026-05-07 15:59 | 48.01023 | 11.06578 | 19762 ft | 376 kts | 223° |
| 2026-05-07 15:59 | 47.99237 | 11.03701 | 20265 ft | 376 kts | 234° |
| 2026-05-07 16:00 | 47.97860 | 11.00428 | 20750 ft | 377 kts | 244° |
| 2026-05-07 16:00 | 47.96836 | 10.96819 | 21239 ft | 378 kts | 253° |
| 2026-05-07 16:00 | 47.96161 | 10.93014 | 21731 ft | 380 kts | 257° |
| 2026-05-07 16:00 | 47.95526 | 10.89191 | 22222 ft | 383 kts | 257° |
| 2026-05-07 16:01 | 47.94849 | 10.85322 | 22718 ft | 386 kts | 256° |
| 2026-05-07 16:01 | 47.94150 | 10.81426 | 23232 ft | 389 kts | 256° |
| 2026-05-07 16:01 | 47.93448 | 10.77554 | 23710 ft | 391 kts | 256° |
| 2026-05-07 16:01 | 47.92730 | 10.73607 | 24144 ft | 394 kts | 256° |
| 2026-05-07 16:02 | 47.92249 | 10.70970 | 24435 ft | 396 kts | 256° |
| 2026-05-07 16:03 | 47.92041 | 10.69828 | 24567 ft | 396 kts | 256° |
| 2026-05-07 16:03 | 47.91522 | 10.66992 | 24874 ft | 398 kts | 256° |
| 2026-05-07 16:03 | 47.90766 | 10.62849 | 25310 ft | 400 kts | 256° |
| 2026-05-07 16:04 | 47.90043 | 10.58886 | 25729 ft | 403 kts | 255° |
| 2026-05-07 16:04 | 47.89296 | 10.54829 | 26155 ft | 405 kts | 255° |
| 2026-05-07 16:04 | 47.88546 | 10.50761 | 26572 ft | 408 kts | 255° |
| 2026-05-07 16:04 | 47.87797 | 10.46708 | 26996 ft | 410 kts | 255° |
| 2026-05-07 16:05 | 47.87035 | 10.42584 | 27394 ft | 413 kts | 255° |
| 2026-05-07 16:05 | 47.86268 | 10.38443 | 27809 ft | 415 kts | 255° |
| 2026-05-07 16:05 | 47.85561 | 10.34461 | 28184 ft | 417 kts | 258° |
| 2026-05-07 16:05 | 47.85111 | 10.30243 | 28552 ft | 419 kts | 265° |
| 2026-05-07 16:06 | 47.84940 | 10.25884 | 28941 ft | 421 kts | 267° |
| 2026-05-07 16:06 | 47.84783 | 10.21509 | 29318 ft | 423 kts | 267° |
| 2026-05-07 16:06 | 47.84611 | 10.17152 | 29690 ft | 426 kts | 266° |
| 2026-05-07 16:06 | 47.84428 | 10.12724 | 30079 ft | 428 kts | 266° |
| 2026-05-07 16:07 | 47.84239 | 10.08262 | 30415 ft | 430 kts | 266° |
| 2026-05-07 16:07 | 47.84048 | 10.03811 | 30780 ft | 431 kts | 266° |
| 2026-05-07 16:07 | 47.83866 | 9.99390 | 31103 ft | 433 kts | 268° |
| 2026-05-07 16:07 | 47.83844 | 9.95798 | 31346 ft | 435 kts | 270° |
| 2026-05-07 16:08 | 47.83848 | 9.92169 | 31638 ft | 436 kts | 270° |
| 2026-05-07 16:08 | 47.83846 | 9.87641 | 31970 ft | 438 kts | 269° |
| 2026-05-07 16:08 | 47.83838 | 9.83070 | 32288 ft | 440 kts | 269° |
| 2026-05-07 16:08 | 47.83826 | 9.78652 | 32579 ft | 442 kts | 269° |
| 2026-05-07 16:09 | 47.83812 | 9.74055 | 32840 ft | 444 kts | 269° |
| 2026-05-07 16:09 | 47.83795 | 9.69422 | 33076 ft | 445 kts | 269° |
| 2026-05-07 16:09 | 47.83768 | 9.64860 | 33291 ft | 447 kts | 268° |
| 2026-05-07 16:09 | 47.83520 | 9.60260 | 33473 ft | 448 kts | 262° |
| 2026-05-07 16:10 | 47.82972 | 9.55652 | 33702 ft | 448 kts | 259° |
| 2026-05-07 16:10 | 47.82408 | 9.51142 | 33934 ft | 447 kts | 260° |
| 2026-05-07 16:10 | 47.81852 | 9.46577 | 34147 ft | 447 kts | 260° |
| 2026-05-07 16:10 | 47.81302 | 9.42016 | 34343 ft | 446 kts | 260° |
| 2026-05-07 16:11 | 47.80753 | 9.37467 | 34539 ft | 446 kts | 260° |
| 2026-05-07 16:11 | 47.80206 | 9.32966 | 34720 ft | 446 kts | 259° |
| 2026-05-07 16:11 | 47.79652 | 9.28425 | 34897 ft | 446 kts | 259° |
| 2026-05-07 16:11 | 47.79092 | 9.23855 | 35083 ft | 446 kts | 259° |
| 2026-05-07 16:12 | 47.78539 | 9.19356 | 35254 ft | 446 kts | 259° |
| 2026-05-07 16:12 | 47.77977 | 9.14798 | 35429 ft | 446 kts | 259° |
| 2026-05-07 16:12 | 47.77417 | 9.10280 | 35608 ft | 446 kts | 259° |
| 2026-05-07 16:12 | 47.76851 | 9.05725 | 35793 ft | 446 kts | 259° |
| 2026-05-07 16:13 | 47.76284 | 9.01178 | 35966 ft | 446 kts | 259° |
| 2026-05-07 16:13 | 47.75719 | 8.96665 | 36144 ft | 446 kts | 259° |
| 2026-05-07 16:13 | 47.75148 | 8.92115 | 36312 ft | 446 kts | 259° |
| 2026-05-07 16:13 | 47.74576 | 8.87568 | 36496 ft | 446 kts | 259° |
| 2026-05-07 16:14 | 47.74008 | 8.83076 | 36661 ft | 446 kts | 259° |
| 2026-05-07 16:14 | 47.73437 | 8.78568 | 36837 ft | 446 kts | 259° |
| 2026-05-07 16:14 | 47.72858 | 8.74020 | 37008 ft | 446 kts | 259° |
| 2026-05-07 16:14 | 47.72283 | 8.69516 | 37186 ft | 446 kts | 259° |
| 2026-05-07 16:15 | 47.71704 | 8.64990 | 37351 ft | 446 kts | 258° |
| 2026-05-07 16:15 | 47.71120 | 8.60441 | 37519 ft | 446 kts | 258° |
| 2026-05-07 16:15 | 47.70538 | 8.55924 | 37684 ft | 446 kts | 258° |
| 2026-05-07 16:15 | 47.69883 | 8.51456 | 37841 ft | 446 kts | 255° |
| 2026-05-07 16:16 | 47.68950 | 8.47055 | 38007 ft | 445 kts | 250° |
| 2026-05-07 16:16 | 47.67797 | 8.42908 | 38157 ft | 445 kts | 245° |
| 2026-05-07 16:16 | 47.66397 | 8.38865 | 38333 ft | 445 kts | 240° |
| 2026-05-07 16:16 | 47.64746 | 8.34962 | 38476 ft | 446 kts | 236° |
| 2026-05-07 16:17 | 47.62915 | 8.31231 | 38636 ft | 446 kts | 234° |
| 2026-05-07 16:17 | 47.61113 | 8.27551 | 38761 ft | 446 kts | 235° |
| 2026-05-07 16:17 | 47.59299 | 8.23811 | 38892 ft | 445 kts | 235° |
| 2026-05-07 16:17 | 47.57494 | 8.20088 | 39006 ft | 445 kts | 235° |
| 2026-05-07 16:18 | 47.55678 | 8.16348 | 39116 ft | 445 kts | 235° |
| 2026-05-07 16:18 | 47.53888 | 8.12672 | 39233 ft | 445 kts | 235° |
| 2026-05-07 16:18 | 47.52067 | 8.08942 | 39342 ft | 446 kts | 235° |
| 2026-05-07 16:18 | 47.50246 | 8.05216 | 39455 ft | 446 kts | 235° |
| 2026-05-07 16:19 | 47.48424 | 8.01494 | 39552 ft | 446 kts | 235° |
| 2026-05-07 16:19 | 47.46607 | 7.97787 | 39664 ft | 446 kts | 234° |
| 2026-05-07 16:19 | 47.44790 | 7.94084 | 39755 ft | 446 kts | 234° |
| 2026-05-07 16:19 | 47.42963 | 7.90366 | 39873 ft | 446 kts | 234° |
| 2026-05-07 16:20 | 47.41137 | 7.86656 | 39985 ft | 446 kts | 234° |
| 2026-05-07 16:20 | 47.37491 | 7.79261 | 40184 ft | 446 kts | 234° |
| 2026-05-07 16:20 | 47.35676 | 7.75588 | 40285 ft | 447 kts | 234° |
| 2026-05-07 16:21 | 47.33834 | 7.71866 | 40366 ft | 447 kts | 234° |
| 2026-05-07 16:21 | 47.30178 | 7.64491 | 40558 ft | 447 kts | 234° |
| 2026-05-07 16:22 | 47.26513 | 7.57116 | 40736 ft | 447 kts | 234° |
| 2026-05-07 16:22 | 47.24666 | 7.53407 | 40839 ft | 446 kts | 234° |
| 2026-05-07 16:22 | 47.22846 | 7.49755 | 40918 ft | 447 kts | 234° |
| 2026-05-07 16:23 | 47.19154 | 7.42368 | 40992 ft | 446 kts | 234° |
| 2026-05-07 16:23 | 47.15475 | 7.35044 | 40991 ft | 446 kts | 233° |
| 2026-05-07 16:24 | 47.11997 | 7.28622 | 41009 ft | 446 kts | 232° |
| 2026-05-07 16:24 | 47.08093 | 7.21542 | 40989 ft | 446 kts | 232° |
| 2026-05-07 16:25 | 47.04237 | 7.14483 | 41001 ft | 446 kts | 232° |
| 2026-05-07 16:25 | 47.00349 | 7.07362 | 41037 ft | 446 kts | 232° |
| 2026-05-07 16:26 | 46.96464 | 7.00263 | 41040 ft | 446 kts | 232° |
| 2026-05-07 16:26 | 46.92603 | 6.93228 | 41043 ft | 446 kts | 232° |
| 2026-05-07 16:27 | 46.88691 | 6.86123 | 41038 ft | 446 kts | 232° |
| 2026-05-07 16:27 | 46.84819 | 6.79123 | 41042 ft | 446 kts | 232° |
| 2026-05-07 16:28 | 46.80911 | 6.72071 | 41042 ft | 446 kts | 232° |
| 2026-05-07 16:28 | 46.77004 | 6.65038 | 41034 ft | 446 kts | 232° |
| 2026-05-07 16:29 | 46.73091 | 6.58015 | 41035 ft | 446 kts | 232° |
| 2026-05-07 16:29 | 46.69181 | 6.51012 | 41034 ft | 446 kts | 231° |
| 2026-05-07 16:30 | 46.65266 | 6.44020 | 41033 ft | 446 kts | 231° |
| 2026-05-07 16:30 | 46.61326 | 6.37000 | 41024 ft | 446 kts | 231° |
| 2026-05-07 16:31 | 46.57419 | 6.30058 | 41025 ft | 446 kts | 231° |
| 2026-05-07 16:31 | 46.53493 | 6.23099 | 41026 ft | 446 kts | 231° |
| 2026-05-07 16:32 | 46.49541 | 6.16110 | 41024 ft | 446 kts | 231° |
| 2026-05-07 16:32 | 46.45612 | 6.09181 | 41024 ft | 445 kts | 231° |
| 2026-05-07 16:33 | 46.41674 | 6.02256 | 41026 ft | 445 kts | 231° |
| 2026-05-07 16:33 | 46.37743 | 5.95357 | 41026 ft | 445 kts | 231° |
| 2026-05-07 16:34 | 46.33782 | 5.88424 | 41025 ft | 446 kts | 231° |
| 2026-05-07 16:34 | 46.29830 | 5.81524 | 41027 ft | 445 kts | 231° |
| 2026-05-07 16:35 | 46.25887 | 5.74656 | 41026 ft | 445 kts | 231° |
| 2026-05-07 16:35 | 46.21926 | 5.67775 | 41026 ft | 445 kts | 231° |
| 2026-05-07 16:36 | 46.17966 | 5.60912 | 41025 ft | 445 kts | 231° |
| 2026-05-07 16:36 | 46.14062 | 5.54012 | 41020 ft | 445 kts | 235° |
| 2026-05-07 16:37 | 46.10569 | 5.46665 | 41027 ft | 445 kts | 236° |
| 2026-05-07 16:37 | 46.07044 | 5.39277 | 41019 ft | 445 kts | 236° |
| 2026-05-07 16:38 | 46.03530 | 5.31974 | 41031 ft | 445 kts | 235° |
| 2026-05-07 16:38 | 45.99993 | 5.24647 | 41030 ft | 445 kts | 235° |
| 2026-05-07 16:39 | 45.96465 | 5.17355 | 41031 ft | 445 kts | 235° |
| 2026-05-07 16:39 | 45.92925 | 5.10059 | 41032 ft | 445 kts | 235° |
| 2026-05-07 16:40 | 45.89392 | 5.02794 | 41036 ft | 445 kts | 235° |
| 2026-05-07 16:40 | 45.85846 | 4.95523 | 41036 ft | 445 kts | 235° |
| 2026-05-07 16:41 | 45.82286 | 4.88242 | 41012 ft | 445 kts | 235° |
| 2026-05-07 16:41 | 45.78738 | 4.81002 | 41011 ft | 445 kts | 235° |
| 2026-05-07 16:42 | 45.75169 | 4.73742 | 41012 ft | 445 kts | 235° |
| 2026-05-07 16:42 | 45.71601 | 4.66499 | 41012 ft | 446 kts | 235° |
| 2026-05-07 16:43 | 45.68029 | 4.59264 | 41011 ft | 446 kts | 235° |
| 2026-05-07 16:43 | 45.64428 | 4.51991 | 41014 ft | 446 kts | 235° |
| 2026-05-07 16:44 | 45.60846 | 4.44774 | 41022 ft | 446 kts | 235° |
| 2026-05-07 16:44 | 45.57249 | 4.37547 | 41022 ft | 446 kts | 235° |
| 2026-05-07 16:45 | 45.53653 | 4.30338 | 41024 ft | 446 kts | 234° |
| 2026-05-07 16:45 | 45.50039 | 4.23114 | 41026 ft | 447 kts | 234° |
| 2026-05-07 16:46 | 45.46436 | 4.15938 | 41026 ft | 447 kts | 234° |
| 2026-05-07 16:46 | 45.42808 | 4.08727 | 41022 ft | 447 kts | 234° |
| 2026-05-07 16:47 | 45.39204 | 4.01580 | 41020 ft | 447 kts | 234° |
| 2026-05-07 16:47 | 45.35567 | 3.94387 | 41015 ft | 447 kts | 234° |
| 2026-05-07 16:48 | 45.31941 | 3.87235 | 41019 ft | 447 kts | 234° |
| 2026-05-07 16:48 | 45.28280 | 3.80031 | 41019 ft | 447 kts | 234° |
| 2026-05-07 16:49 | 45.24641 | 3.72879 | 41024 ft | 447 kts | 235° |
| 2026-05-07 16:49 | 45.21093 | 3.65656 | 41024 ft | 447 kts | 236° |
| 2026-05-07 16:50 | 45.17555 | 3.58434 | 41028 ft | 447 kts | 235° |
| 2026-05-07 16:50 | 45.13985 | 3.51203 | 41018 ft | 447 kts | 235° |
| 2026-05-07 16:51 | 45.10405 | 3.43981 | 41016 ft | 448 kts | 235° |
| 2026-05-07 16:51 | 45.06831 | 3.36791 | 41012 ft | 447 kts | 235° |
| 2026-05-07 16:52 | 45.03260 | 3.29623 | 41006 ft | 448 kts | 235° |
| 2026-05-07 16:52 | 44.99656 | 3.22408 | 41002 ft | 447 kts | 235° |
| 2026-05-07 16:53 | 44.96060 | 3.15224 | 41007 ft | 448 kts | 235° |
| 2026-05-07 16:53 | 44.92465 | 3.08063 | 41005 ft | 448 kts | 235° |
| 2026-05-07 16:54 | 44.88849 | 3.00878 | 41007 ft | 448 kts | 235° |
| 2026-05-07 16:54 | 44.85246 | 2.93738 | 41010 ft | 448 kts | 235° |
| 2026-05-07 16:55 | 44.81767 | 2.86471 | 41009 ft | 448 kts | 238° |
| 2026-05-07 16:55 | 44.78433 | 2.79072 | 41015 ft | 448 kts | 238° |
| 2026-05-07 16:56 | 44.75051 | 2.71688 | 41021 ft | 448 kts | 237° |
| 2026-05-07 16:56 | 44.69945 | 2.60666 | 41006 ft | 449 kts | 237° |
| 2026-05-07 16:57 | 44.66537 | 2.53335 | 40959 ft | 448 kts | 237° |
| 2026-05-07 16:57 | 44.63133 | 2.46029 | 40960 ft | 449 kts | 237° |
| 2026-05-07 16:58 | 44.60265 | 2.39891 | 40964 ft | 449 kts | 237° |
| 2026-05-07 16:58 | 44.56836 | 2.32569 | 40967 ft | 449 kts | 237° |
| 2026-05-07 16:59 | 44.53408 | 2.25265 | 40965 ft | 449 kts | 237° |
| 2026-05-07 16:59 | 44.50078 | 2.18189 | 40964 ft | 449 kts | 237° |
| 2026-05-07 17:00 | 44.46639 | 2.10900 | 40963 ft | 449 kts | 237° |
| 2026-05-07 17:00 | 44.43195 | 2.03619 | 40962 ft | 449 kts | 237° |
| 2026-05-07 17:01 | 44.39751 | 1.96353 | 40952 ft | 449 kts | 237° |
| 2026-05-07 17:01 | 44.36282 | 1.89055 | 40955 ft | 449 kts | 237° |
| 2026-05-07 17:02 | 44.32839 | 1.81829 | 40952 ft | 448 kts | 237° |
| 2026-05-07 17:02 | 44.29366 | 1.74560 | 40953 ft | 449 kts | 237° |
| 2026-05-07 17:03 | 44.25988 | 1.67265 | 40950 ft | 449 kts | 238° |
| 2026-05-07 17:03 | 44.22639 | 1.59912 | 40944 ft | 449 kts | 238° |
| 2026-05-07 17:04 | 44.19278 | 1.52598 | 40942 ft | 448 kts | 238° |
| 2026-05-07 17:04 | 44.15901 | 1.45289 | 40941 ft | 448 kts | 238° |
| 2026-05-07 17:05 | 44.12528 | 1.38007 | 40938 ft | 448 kts | 238° |
| 2026-05-07 17:05 | 44.09133 | 1.30695 | 40937 ft | 448 kts | 238° |
| 2026-05-07 17:06 | 44.05761 | 1.23453 | 40937 ft | 448 kts | 238° |
| 2026-05-07 17:06 | 44.02362 | 1.16169 | 40930 ft | 448 kts | 238° |
| 2026-05-07 17:07 | 43.98984 | 1.08950 | 40930 ft | 448 kts | 238° |
| 2026-05-07 17:07 | 43.95587 | 1.01708 | 40922 ft | 448 kts | 238° |
| 2026-05-07 17:08 | 43.92176 | 0.94451 | 40920 ft | 447 kts | 238° |
| 2026-05-07 17:08 | 43.88692 | 0.87344 | 40917 ft | 447 kts | 234° |
| 2026-05-07 17:09 | 43.84623 | 0.80774 | 40919 ft | 448 kts | 229° |
| 2026-05-07 17:09 | 43.80463 | 0.74399 | 40913 ft | 448 kts | 230° |
| 2026-05-07 17:10 | 43.76309 | 0.67992 | 40913 ft | 448 kts | 230° |
| 2026-05-07 17:10 | 43.72127 | 0.61553 | 40906 ft | 448 kts | 230° |
| 2026-05-07 17:11 | 43.67962 | 0.55155 | 40906 ft | 447 kts | 229° |
| 2026-05-07 17:11 | 43.63807 | 0.48789 | 40927 ft | 448 kts | 229° |
| 2026-05-07 17:12 | 43.59647 | 0.42429 | 40930 ft | 447 kts | 229° |
| 2026-05-07 17:12 | 43.55468 | 0.36053 | 40925 ft | 448 kts | 229° |
| 2026-05-07 17:13 | 43.51295 | 0.29702 | 40929 ft | 447 kts | 229° |
| 2026-05-07 17:13 | 43.47122 | 0.23366 | 40925 ft | 447 kts | 229° |
| 2026-05-07 17:14 | 43.42933 | 0.17018 | 40926 ft | 447 kts | 229° |
| 2026-05-07 17:14 | 43.38759 | 0.10709 | 40919 ft | 447 kts | 229° |
| 2026-05-07 17:15 | 43.34558 | 0.04369 | 40922 ft | 447 kts | 229° |
| 2026-05-07 17:15 | 43.30375 | -0.01928 | 40923 ft | 447 kts | 229° |
| 2026-05-07 17:16 | 43.26189 | -0.08217 | 40922 ft | 447 kts | 229° |
| 2026-05-07 17:16 | 43.21995 | -0.14503 | 40913 ft | 447 kts | 229° |
| 2026-05-07 17:17 | 43.17774 | -0.20817 | 40909 ft | 447 kts | 229° |
| 2026-05-07 17:17 | 43.13584 | -0.27069 | 40913 ft | 447 kts | 229° |
| 2026-05-07 17:18 | 43.09389 | -0.33316 | 40962 ft | 447 kts | 229° |
| 2026-05-07 17:18 | 43.05158 | -0.39603 | 40999 ft | 447 kts | 229° |
| 2026-05-07 17:19 | 43.00961 | -0.45825 | 41049 ft | 445 kts | 229° |
| 2026-05-07 17:19 | 42.96748 | -0.52056 | 41033 ft | 448 kts | 229° |
| 2026-05-07 17:20 | 42.92508 | -0.58315 | 40983 ft | 447 kts | 229° |
| 2026-05-07 17:20 | 42.88738 | -0.64963 | 40946 ft | 445 kts | 243° |
| 2026-05-07 17:21 | 42.86574 | -0.72832 | 40948 ft | 445 kts | 256° |
| 2026-05-07 17:21 | 42.85462 | -0.81147 | 40936 ft | 445 kts | 260° |
| 2026-05-07 17:22 | 42.84399 | -0.89441 | 40926 ft | 446 kts | 259° |
| 2026-05-07 17:22 | 42.83295 | -0.97726 | 40929 ft | 445 kts | 259° |
| 2026-05-07 17:23 | 42.82181 | -1.06044 | 40929 ft | 445 kts | 259° |
| 2026-05-07 17:23 | 42.81067 | -1.14324 | 40929 ft | 446 kts | 259° |
| 2026-05-07 17:24 | 42.79946 | -1.22618 | 40923 ft | 446 kts | 259° |
| 2026-05-07 17:24 | 42.78819 | -1.30898 | 40929 ft | 447 kts | 259° |
| 2026-05-07 17:25 | 42.77681 | -1.39203 | 40922 ft | 447 kts | 259° |
| 2026-05-07 17:25 | 42.76535 | -1.47520 | 40922 ft | 447 kts | 259° |
| 2026-05-07 17:26 | 42.75377 | -1.55882 | 40920 ft | 447 kts | 259° |
| 2026-05-07 17:26 | 42.74223 | -1.64177 | 40918 ft | 448 kts | 259° |
| 2026-05-07 17:27 | 42.72895 | -1.72442 | 40920 ft | 447 kts | 254° |
| 2026-05-07 17:27 | 42.71056 | -1.80513 | 40918 ft | 447 kts | 253° |
| 2026-05-07 17:28 | 42.69234 | -1.88579 | 40922 ft | 447 kts | 253° |
| 2026-05-07 17:28 | 42.67413 | -1.96641 | 40915 ft | 447 kts | 253° |
| 2026-05-07 17:29 | 42.65573 | -2.04742 | 40918 ft | 447 kts | 253° |
| 2026-05-07 17:29 | 42.63735 | -2.12803 | 40919 ft | 447 kts | 252° |
| 2026-05-07 17:30 | 42.61866 | -2.20824 | 40913 ft | 447 kts | 252° |
| 2026-05-07 17:30 | 42.59903 | -2.28839 | 40911 ft | 447 kts | 251° |
| 2026-05-07 17:31 | 42.57941 | -2.36861 | 40915 ft | 447 kts | 252° |
| 2026-05-07 17:31 | 42.55991 | -2.44847 | 40912 ft | 447 kts | 252° |
| 2026-05-07 17:32 | 42.54033 | -2.52847 | 40909 ft | 447 kts | 251° |
| 2026-05-07 17:32 | 42.52402 | -2.59488 | 40913 ft | 447 kts | 251° |
| 2026-05-07 17:33 | 42.50101 | -2.68824 | 40913 ft | 447 kts | 251° |
| 2026-05-07 17:33 | 42.48122 | -2.76824 | 40915 ft | 447 kts | 251° |
| 2026-05-07 17:34 | 42.46147 | -2.84780 | 40917 ft | 447 kts | 251° |
| 2026-05-07 17:34 | 42.43830 | -2.92568 | 40916 ft | 446 kts | 245° |
| 2026-05-07 17:35 | 42.41208 | -3.00172 | 40915 ft | 446 kts | 246° |
| 2026-05-07 17:35 | 42.38620 | -3.07773 | 40917 ft | 446 kts | 246° |
| 2026-05-07 17:36 | 42.36007 | -3.15424 | 40918 ft | 446 kts | 246° |
| 2026-05-07 17:36 | 42.33402 | -3.23027 | 40926 ft | 446 kts | 246° |
| 2026-05-07 17:37 | 42.30793 | -3.30615 | 40926 ft | 446 kts | 246° |
| 2026-05-07 17:37 | 42.28180 | -3.38200 | 40934 ft | 446 kts | 246° |
| 2026-05-07 17:38 | 42.25567 | -3.45761 | 40934 ft | 446 kts | 246° |
| 2026-05-07 17:38 | 42.22930 | -3.53369 | 40931 ft | 446 kts | 246° |
| 2026-05-07 17:39 | 42.20292 | -3.60962 | 40930 ft | 446 kts | 245° |
| 2026-05-07 17:39 | 42.17666 | -3.68500 | 40928 ft | 446 kts | 245° |
| 2026-05-07 17:40 | 42.15016 | -3.76085 | 40923 ft | 446 kts | 245° |
| 2026-05-07 17:40 | 42.12359 | -3.83670 | 40908 ft | 446 kts | 245° |
| 2026-05-07 17:41 | 42.09709 | -3.91212 | 40928 ft | 445 kts | 245° |
| 2026-05-07 17:41 | 42.07067 | -3.98713 | 40923 ft | 446 kts | 245° |
| 2026-05-07 17:42 | 42.04402 | -4.06256 | 40899 ft | 446 kts | 245° |
| 2026-05-07 17:42 | 42.01725 | -4.13771 | 40899 ft | 446 kts | 245° |
| 2026-05-07 17:43 | 41.98886 | -4.21193 | 40926 ft | 445 kts | 244° |
| 2026-05-07 17:43 | 41.96037 | -4.28609 | 40925 ft | 445 kts | 244° |
| 2026-05-07 17:44 | 41.93205 | -4.36021 | 40915 ft | 445 kts | 244° |
| 2026-05-07 17:44 | 41.90387 | -4.43392 | 40921 ft | 445 kts | 244° |
| 2026-05-07 17:45 | 41.87555 | -4.50780 | 40918 ft | 445 kts | 244° |
| 2026-05-07 17:45 | 41.84737 | -4.58113 | 40919 ft | 444 kts | 244° |
| 2026-05-07 17:46 | 41.81924 | -4.65412 | 40918 ft | 444 kts | 244° |
| 2026-05-07 17:46 | 41.79084 | -4.72762 | 40915 ft | 443 kts | 244° |
| 2026-05-07 17:47 | 41.76245 | -4.80092 | 40915 ft | 443 kts | 244° |
| 2026-05-07 17:47 | 41.73409 | -4.87398 | 40914 ft | 442 kts | 244° |
| 2026-05-07 17:48 | 41.70588 | -4.94644 | 40914 ft | 441 kts | 244° |
| 2026-05-07 17:48 | 41.67749 | -5.01921 | 40920 ft | 441 kts | 244° |
| 2026-05-07 17:49 | 41.64907 | -5.09185 | 40915 ft | 440 kts | 244° |
| 2026-05-07 17:49 | 41.62539 | -5.15227 | 40917 ft | 439 kts | 244° |
| 2026-05-07 17:50 | 41.59716 | -5.22412 | 40908 ft | 438 kts | 244° |
| 2026-05-07 17:50 | 41.56873 | -5.29627 | 40903 ft | 437 kts | 244° |
| 2026-05-07 17:51 | 41.54036 | -5.36813 | 40896 ft | 436 kts | 244° |
| 2026-05-07 17:51 | 41.51205 | -5.43967 | 40901 ft | 435 kts | 244° |
| 2026-05-07 17:52 | 41.48389 | -5.51062 | 40886 ft | 433 kts | 244° |
| 2026-05-07 17:52 | 41.45575 | -5.58139 | 40875 ft | 432 kts | 244° |
| 2026-05-07 17:53 | 41.42752 | -5.65220 | 40870 ft | 432 kts | 244° |
| 2026-05-07 17:53 | 41.39935 | -5.72270 | 40878 ft | 430 kts | 244° |
| 2026-05-07 17:54 | 41.37115 | -5.79310 | 40887 ft | 430 kts | 244° |
| 2026-05-07 17:54 | 41.34294 | -5.86335 | 40877 ft | 430 kts | 244° |
| 2026-05-07 17:55 | 41.31485 | -5.93313 | 40874 ft | 430 kts | 244° |
| 2026-05-07 17:55 | 41.28655 | -6.00324 | 40876 ft | 429 kts | 244° |
| 2026-05-07 17:56 | 41.25840 | -6.07283 | 40871 ft | 429 kts | 244° |
| 2026-05-07 17:56 | 41.23003 | -6.14283 | 40872 ft | 429 kts | 243° |
| 2026-05-07 17:57 | 41.20642 | -6.20094 | 40870 ft | 429 kts | 243° |
| 2026-05-07 17:57 | 41.17230 | -6.28166 | 40865 ft | 430 kts | 240° |
| 2026-05-07 17:58 | 41.13746 | -6.34644 | 40862 ft | 432 kts | 235° |
| 2026-05-07 17:58 | 41.10171 | -6.40941 | 40861 ft | 432 kts | 236° |
| 2026-05-07 17:59 | 41.06593 | -6.47289 | 40863 ft | 432 kts | 236° |
| 2026-05-07 17:59 | 41.02972 | -6.53698 | 40862 ft | 433 kts | 236° |
| 2026-05-07 18:00 | 40.99379 | -6.60042 | 40862 ft | 433 kts | 236° |
| 2026-05-07 18:00 | 40.95819 | -6.66314 | 40861 ft | 433 kts | 236° |
| 2026-05-07 18:01 | 40.92205 | -6.72667 | 40861 ft | 433 kts | 236° |
| 2026-05-07 18:01 | 40.88663 | -6.78880 | 40863 ft | 433 kts | 236° |
| 2026-05-07 18:02 | 40.83223 | -6.88401 | 40863 ft | 432 kts | 235° |
| 2026-05-07 18:03 | 40.79594 | -6.94736 | 40866 ft | 432 kts | 235° |
| 2026-05-07 18:03 | 40.75974 | -7.01043 | 40868 ft | 431 kts | 235° |
| 2026-05-07 18:04 | 40.72366 | -7.07315 | 40869 ft | 429 kts | 235° |
| 2026-05-07 18:04 | 40.68764 | -7.13563 | 40870 ft | 428 kts | 235° |
| 2026-05-07 18:05 | 40.65165 | -7.19796 | 40868 ft | 427 kts | 235° |
| 2026-05-07 18:05 | 40.61570 | -7.26007 | 40867 ft | 427 kts | 235° |
| 2026-05-07 18:06 | 40.57977 | -7.32205 | 40872 ft | 426 kts | 235° |
| 2026-05-07 18:06 | 40.54378 | -7.38393 | 40861 ft | 425 kts | 235° |
| 2026-05-07 18:07 | 40.50797 | -7.44549 | 40865 ft | 424 kts | 235° |
| 2026-05-07 18:07 | 40.47208 | -7.50703 | 40877 ft | 424 kts | 235° |
| 2026-05-07 18:08 | 40.43604 | -7.56868 | 40881 ft | 423 kts | 235° |
| 2026-05-07 18:08 | 40.40031 | -7.62970 | 40879 ft | 423 kts | 235° |
| 2026-05-07 18:09 | 40.36450 | -7.69075 | 40889 ft | 423 kts | 234° |
| 2026-05-07 18:09 | 40.32851 | -7.75195 | 40844 ft | 423 kts | 234° |
| 2026-05-07 18:09 | 40.31107 | -7.78156 | 40626 ft | 422 kts | 234° |
| 2026-05-07 18:10 | 40.29313 | -7.81196 | 40371 ft | 419 kts | 235° |
| 2026-05-07 18:10 | 40.27538 | -7.84202 | 40140 ft | 416 kts | 235° |
| 2026-05-07 18:10 | 40.25757 | -7.87218 | 39745 ft | 416 kts | 235° |
| 2026-05-07 18:10 | 40.24006 | -7.90182 | 39115 ft | 416 kts | 235° |
| 2026-05-07 18:11 | 40.22227 | -7.93187 | 38239 ft | 418 kts | 235° |
| 2026-05-07 18:11 | 40.21045 | -7.95184 | 37423 ft | 419 kts | 235° |
| 2026-05-07 18:11 | 40.18640 | -7.99248 | 36127 ft | 420 kts | 235° |
| 2026-05-07 18:11 | 40.16871 | -8.02233 | 35384 ft | 423 kts | 235° |
| 2026-05-07 18:12 | 40.15034 | -8.05331 | 34772 ft | 434 kts | 234° |
| 2026-05-07 18:12 | 40.13196 | -8.08423 | 34069 ft | 437 kts | 234° |
| 2026-05-07 18:12 | 40.11311 | -8.11592 | 32679 ft | 444 kts | 234° |
| 2026-05-07 18:12 | 40.09389 | -8.14821 | 31221 ft | 450 kts | 234° |
| 2026-05-07 18:13 | 40.07491 | -8.18003 | 30192 ft | 447 kts | 233° |
| 2026-05-07 18:13 | 40.05590 | -8.21186 | 29337 ft | 441 kts | 233° |
| 2026-05-07 18:13 | 40.03705 | -8.24335 | 28820 ft | 441 kts | 233° |
| 2026-05-07 18:13 | 40.01557 | -8.27302 | 28521 ft | 453 kts | 223° |
| 2026-05-07 18:14 | 39.99007 | -8.29637 | 28252 ft | 454 kts | 212° |
| 2026-05-07 18:14 | 39.96077 | -8.31286 | 28064 ft | 463 kts | 200° |
| 2026-05-07 18:14 | 39.92870 | -8.32164 | 27859 ft | 471 kts | 190° |
| 2026-05-07 18:14 | 39.89651 | -8.32449 | 27663 ft | 470 kts | 186° |
| 2026-05-07 18:15 | 39.86378 | -8.32645 | 27329 ft | 467 kts | 187° |
| 2026-05-07 18:15 | 39.83136 | -8.32933 | 26951 ft | 464 kts | 188° |
| 2026-05-07 18:15 | 39.79957 | -8.33316 | 26560 ft | 460 kts | 189° |
| 2026-05-07 18:15 | 39.76781 | -8.33765 | 26183 ft | 457 kts | 190° |
| 2026-05-07 18:16 | 39.73621 | -8.34256 | 25795 ft | 452 kts | 192° |
| 2026-05-07 18:16 | 39.70632 | -8.35240 | 25428 ft | 445 kts | 202° |
| 2026-05-07 18:16 | 39.67851 | -8.37001 | 25068 ft | 439 kts | 214° |
| 2026-05-07 18:16 | 39.65458 | -8.39436 | 24724 ft | 435 kts | 225° |
| 2026-05-07 18:17 | 39.63549 | -8.42388 | 24392 ft | 431 kts | 234° |
| 2026-05-07 18:17 | 39.61886 | -8.45645 | 24040 ft | 430 kts | 237° |
| 2026-05-07 18:17 | 39.60230 | -8.48876 | 23688 ft | 428 kts | 234° |
| 2026-05-07 18:17 | 39.58315 | -8.51762 | 23326 ft | 427 kts | 225° |
| 2026-05-07 18:18 | 39.56055 | -8.54262 | 22969 ft | 426 kts | 217° |
| 2026-05-07 18:18 | 39.53556 | -8.56352 | 22618 ft | 425 kts | 211° |
| 2026-05-07 18:18 | 39.51010 | -8.58302 | 22283 ft | 424 kts | 212° |
| 2026-05-07 18:18 | 39.48517 | -8.60234 | 21978 ft | 415 kts | 212° |
| 2026-05-07 18:19 | 39.46052 | -8.62159 | 21591 ft | 410 kts | 212° |
| 2026-05-07 18:19 | 39.43623 | -8.64061 | 21270 ft | 415 kts | 212° |
| 2026-05-07 18:19 | 39.41137 | -8.66010 | 20935 ft | 413 kts | 212° |
| 2026-05-07 18:19 | 39.38712 | -8.67909 | 20608 ft | 411 kts | 211° |
| 2026-05-07 18:20 | 39.36265 | -8.69822 | 20272 ft | 410 kts | 211° |
| 2026-05-07 18:20 | 39.33864 | -8.71699 | 19949 ft | 409 kts | 211° |
| 2026-05-07 18:20 | 39.31468 | -8.73675 | 19618 ft | 407 kts | 215° |
| 2026-05-07 18:20 | 39.29320 | -8.75951 | 19418 ft | 389 kts | 221° |
| 2026-05-07 18:21 | 39.27398 | -8.78205 | 19191 ft | 367 kts | 221° |
| 2026-05-07 18:21 | 39.25552 | -8.80345 | 18985 ft | 343 kts | 220° |
| 2026-05-07 18:21 | 39.23843 | -8.82309 | 18795 ft | 321 kts | 220° |
| 2026-05-07 18:21 | 39.22200 | -8.84191 | 18322 ft | 311 kts | 220° |
| 2026-05-07 18:22 | 39.20598 | -8.86015 | 17971 ft | 309 kts | 220° |
| 2026-05-07 18:22 | 39.19518 | -8.87243 | 17796 ft | 311 kts | 220° |
| 2026-05-07 18:22 | 39.17360 | -8.89702 | 17437 ft | 309 kts | 220° |
| 2026-05-07 18:22 | 39.15750 | -8.91535 | 17173 ft | 306 kts | 220° |
| 2026-05-07 18:23 | 39.14152 | -8.93355 | 16918 ft | 305 kts | 220° |
| 2026-05-07 18:23 | 39.12578 | -8.95147 | 16654 ft | 305 kts | 219° |
| 2026-05-07 18:23 | 39.10994 | -8.96950 | 16389 ft | 304 kts | 219° |
| 2026-05-07 18:23 | 39.09410 | -8.98752 | 16142 ft | 302 kts | 219° |
| 2026-05-07 18:24 | 39.07830 | -9.00548 | 15891 ft | 301 kts | 219° |
| 2026-05-07 18:24 | 39.06257 | -9.02335 | 15637 ft | 300 kts | 219° |
| 2026-05-07 18:24 | 39.04711 | -9.04092 | 15390 ft | 299 kts | 220° |
| 2026-05-07 18:24 | 39.03151 | -9.05873 | 15151 ft | 299 kts | 220° |
| 2026-05-07 18:25 | 39.01613 | -9.07632 | 14900 ft | 298 kts | 220° |
| 2026-05-07 18:25 | 39.00059 | -9.09409 | 14650 ft | 298 kts | 219° |
| 2026-05-07 18:25 | 38.98512 | -9.11172 | 14415 ft | 297 kts | 220° |
| 2026-05-07 18:25 | 38.96963 | -9.12935 | 14183 ft | 295 kts | 219° |
| 2026-05-07 18:26 | 38.95436 | -9.14672 | 13943 ft | 295 kts | 219° |
| 2026-05-07 18:26 | 38.93901 | -9.16417 | 13698 ft | 294 kts | 219° |
| 2026-05-07 18:26 | 38.92222 | -9.17890 | 13439 ft | 290 kts | 204° |
| 2026-05-07 18:26 | 38.90365 | -9.18935 | 13168 ft | 289 kts | 202° |
| 2026-05-07 18:27 | 38.88542 | -9.19926 | 12895 ft | 287 kts | 202° |
| 2026-05-07 18:27 | 38.86698 | -9.20936 | 12647 ft | 287 kts | 202° |
| 2026-05-07 18:27 | 38.84882 | -9.21943 | 12376 ft | 284 kts | 202° |
| 2026-05-07 18:27 | 38.83661 | -9.22626 | 12205 ft | 281 kts | 202° |
| 2026-05-07 18:28 | 38.81266 | -9.23972 | 11869 ft | 283 kts | 202° |
| 2026-05-07 18:28 | 38.79478 | -9.24977 | 11633 ft | 283 kts | 202° |
| 2026-05-07 18:28 | 38.77673 | -9.25993 | 11397 ft | 281 kts | 202° |
| 2026-05-07 18:28 | 38.75881 | -9.26998 | 11145 ft | 279 kts | 202° |
| 2026-05-07 18:29 | 38.74115 | -9.27991 | 10907 ft | 279 kts | 202° |
| 2026-05-07 18:29 | 38.72335 | -9.28988 | 10688 ft | 278 kts | 202° |
| 2026-05-07 18:29 | 38.70586 | -9.29970 | 10665 ft | 277 kts | 202° |
| 2026-05-07 18:29 | 38.68808 | -9.30966 | 10670 ft | 279 kts | 202° |
| 2026-05-07 18:30 | 38.67028 | -9.31962 | 10667 ft | 278 kts | 202° |
| 2026-05-07 18:30 | 38.65258 | -9.32951 | 10553 ft | 279 kts | 202° |
| 2026-05-07 18:30 | 38.63470 | -9.33950 | 10159 ft | 276 kts | 202° |
| 2026-05-07 18:30 | 38.61736 | -9.34920 | 9732 ft | 274 kts | 202° |
| 2026-05-07 18:31 | 38.59989 | -9.35895 | 9239 ft | 273 kts | 202° |
| 2026-05-07 18:31 | 38.58247 | -9.36864 | 8773 ft | 270 kts | 203° |
| 2026-05-07 18:31 | 38.56549 | -9.37807 | 8304 ft | 268 kts | 203° |
| 2026-05-07 18:31 | 38.54836 | -9.38761 | 7855 ft | 267 kts | 203° |
| 2026-05-07 18:32 | 38.53164 | -9.39692 | 7406 ft | 255 kts | 203° |
| 2026-05-07 18:32 | 38.51551 | -9.40383 | 6906 ft | 242 kts | 188° |
| 2026-05-07 18:32 | 38.49899 | -9.40176 | 6403 ft | 238 kts | 162° |
| 2026-05-07 18:32 | 38.48529 | -9.39025 | 5825 ft | 240 kts | 135° |
| 2026-05-07 18:33 | 38.47705 | -9.37152 | 5195 ft | 247 kts | 106° |
| 2026-05-07 18:33 | 38.47646 | -9.34975 | 4574 ft | 251 kts | 77° |
| 2026-05-07 18:33 | 38.48401 | -9.33018 | 4166 ft | 240 kts | 45° |
| 2026-05-07 18:33 | 38.49714 | -9.31832 | 4058 ft | 235 kts | 23° |
| 2026-05-07 18:34 | 38.51180 | -9.30842 | 4020 ft | 239 kts | 26° |
| 2026-05-07 18:34 | 38.52598 | -9.29744 | 4030 ft | 239 kts | 30° |
| 2026-05-07 18:34 | 38.53986 | -9.28552 | 4028 ft | 240 kts | 31° |
| 2026-05-07 18:34 | 38.55350 | -9.27317 | 4028 ft | 239 kts | 32° |
| 2026-05-07 18:35 | 38.56682 | -9.26089 | 4026 ft | 239 kts | 32° |
| 2026-05-07 18:35 | 38.58041 | -9.24848 | 4026 ft | 239 kts | 32° |
| 2026-05-07 18:35 | 38.59430 | -9.23733 | 4001 ft | 226 kts | 25° |
| 2026-05-07 18:35 | 38.60779 | -9.22886 | 3764 ft | 213 kts | 20° |
| 2026-05-07 18:36 | 38.62124 | -9.22155 | 3486 ft | 206 kts | 18° |
| 2026-05-07 18:36 | 38.63428 | -9.21460 | 3225 ft | 200 kts | 19° |
| 2026-05-07 18:36 | 38.64674 | -9.20788 | 2952 ft | 192 kts | 18° |
| 2026-05-07 18:36 | 38.65860 | -9.20154 | 2663 ft | 177 kts | 17° |
| 2026-05-07 18:37 | 38.66948 | -9.19570 | 2438 ft | 162 kts | 18° |
| 2026-05-07 18:37 | 38.67962 | -9.19021 | 2243 ft | 152 kts | 16° |
| 2026-05-07 18:37 | 38.68898 | -9.18533 | 2020 ft | 144 kts | 17° |
| 2026-05-07 18:37 | 38.69818 | -9.18018 | 1802 ft | 139 kts | 17° |
| 2026-05-07 18:38 | 38.70710 | -9.17515 | 1577 ft | 142 kts | 17° |
| 2026-05-07 18:38 | 38.71619 | -9.17037 | 1467 ft | 140 kts | 15° |
| 2026-05-07 18:38 | 38.72501 | -9.16557 | 1319 ft | 140 kts | 17° |
| 2026-05-07 18:38 | 38.73119 | -9.16242 | 1170 ft | 143 kts | 16° |
| 2026-05-07 18:39 | 38.74303 | -9.15625 | 861 ft | 136 kts | 24° |
| 2026-05-07 18:39 | 38.74905 | -9.15277 | 750 ft | 149 kts | 19° |
| 2026-05-07 18:39 | 38.75852 | -9.14793 | 530 ft | 136 kts | 27° |